createdAt,value
2022-08-20T00:02:18.273Z,824
2022-08-20T00:07:19.962Z,811.60563
2022-08-20T00:12:21.901Z,824
2022-08-20T00:17:24.092Z,849.88235
2022-08-20T00:22:25.868Z,849.88235
2022-08-20T00:27:27.940Z,824
2022-08-20T00:32:30.042Z,824
2022-08-20T00:37:31.662Z,776.43243
2022-08-20T00:42:33.238Z,787.83562
2022-08-20T00:47:35.221Z,765.33333
2022-08-20T00:52:36.632Z,754.52632
2022-08-20T00:57:58.846Z,787.83562
2022-08-20T01:03:03.822Z,787.83562
2022-08-20T01:08:05.322Z,776.43243
2022-08-20T01:13:06.872Z,787.83562
2022-08-20T01:18:08.738Z,776.43243
2022-08-20T01:23:10.281Z,799.55556
2022-08-20T01:28:11.979Z,799.55556
2022-08-20T01:33:14.378Z,776.43243
2022-08-20T01:38:16.099Z,776.43243
2022-08-20T01:43:18.168Z,776.43243
2022-08-20T01:48:20.593Z,776.43243
2022-08-20T01:53:22.526Z,811.60563
2022-08-20T01:58:24.326Z,836.75362
2022-08-20T02:03:26.415Z,849.88235
2022-08-20T02:08:28.381Z,836.75362
2022-08-20T02:13:30.425Z,824
2022-08-20T02:18:32.489Z,811.60563
2022-08-20T02:23:34.251Z,824
2022-08-20T02:28:36.429Z,824
2022-08-20T02:33:39.130Z,824
2022-08-20T02:38:41.640Z,824
2022-08-20T02:43:43.508Z,799.55556
2022-08-20T02:48:45.458Z,787.83562
2022-08-20T02:53:47.205Z,811.60563
2022-08-20T02:58:49.092Z,799.55556
2022-08-20T03:03:51.535Z,776.43243
2022-08-20T03:08:53.187Z,787.83562
2022-08-20T03:13:54.941Z,824
2022-08-20T03:18:56.617Z,799.55556
2022-08-20T03:23:58.040Z,824
2022-08-20T03:28:59.563Z,811.60563
2022-08-20T03:34:01.819Z,787.83562
2022-08-20T03:39:03.538Z,754.52632
2022-08-20T03:44:05.085Z,787.83562
2022-08-20T03:49:07.394Z,765.33333
2022-08-20T03:54:09.702Z,744
2022-08-20T03:59:11.945Z,733.74359
2022-08-20T04:04:13.965Z,744
2022-08-20T04:09:15.702Z,744
2022-08-20T04:14:19.639Z,754.52632
2022-08-20T04:19:22.758Z,754.52632
2022-08-20T04:24:31.648Z,754.52632
2022-08-20T04:29:35.328Z,754.52632
2022-08-20T04:34:37.697Z,744
2022-08-20T04:39:39.597Z,733.74359
2022-08-20T04:44:41.480Z,695.21951
2022-08-20T04:49:42.994Z,686.16867
2022-08-20T04:54:44.853Z,628.44444
2022-08-20T04:59:46.934Z,704.49383
2022-08-20T05:04:49.217Z,723.74684
2022-08-20T05:09:50.979Z,704.49383
2022-08-20T05:14:52.419Z,723.74684
2022-08-20T05:19:54.198Z,714
2022-08-20T05:24:55.961Z,723.74684
2022-08-20T05:29:57.701Z,714
2022-08-20T05:35:02.348Z,744
2022-08-20T05:40:03.997Z,733.74359
2022-08-20T05:45:11.082Z,765.33333
2022-08-20T05:50:23.214Z,754.52632
2022-08-20T05:55:25.799Z,765.33333
2022-08-20T06:00:28.300Z,765.33333
2022-08-20T06:05:30.935Z,787.83562
2022-08-20T06:10:33.286Z,787.83562
2022-08-20T06:15:35.427Z,787.83562
2022-08-20T06:20:37.256Z,811.60563
2022-08-20T06:25:39.006Z,765.33333
2022-08-20T06:30:40.771Z,799.55556
2022-08-20T06:35:42.999Z,836.75362
2022-08-20T06:40:45.133Z,877.33333
2022-08-20T06:45:47.097Z,877.33333
2022-08-20T06:50:49.286Z,863.40299
2022-08-20T06:55:51.287Z,849.88235
2022-08-20T07:00:53.127Z,824
2022-08-20T07:05:55.730Z,824
2022-08-20T07:10:57.207Z,863.40299
2022-08-20T07:15:58.790Z,849.88235
2022-08-20T07:21:00.434Z,863.40299
2022-08-20T07:26:01.873Z,863.40299
2022-08-20T07:31:13.476Z,877.33333
2022-08-20T07:36:16.850Z,877.33333
2022-08-20T07:41:18.628Z,877.33333
2022-08-20T07:46:20.789Z,891.69231
2022-08-20T07:51:22.706Z,824
2022-08-20T07:56:24.653Z,863.40299
2022-08-20T08:01:26.814Z,877.33333
2022-08-20T08:06:31.108Z,877.33333
2022-08-20T08:11:33.472Z,921.77778
2022-08-20T08:16:35.023Z,953.83607
2022-08-20T08:21:36.618Z,937.54839
2022-08-20T08:26:38.076Z,1006.06897
2022-08-20T08:31:39.753Z,1044
2022-08-20T08:36:41.637Z,1006.06897
2022-08-20T08:41:43.211Z,1006.06897
2022-08-20T08:46:44.649Z,988.0678
2022-08-20T08:51:46.473Z,1128.61538
2022-08-20T08:56:49.922Z,1201.14286
2022-08-20T09:01:53.750Z,1176
2022-08-20T09:06:58.640Z,1201.14286
2022-08-20T09:12:00.114Z,1201.14286
2022-08-20T09:17:01.824Z,1283.13043
2022-08-20T09:22:03.757Z,1201.14286
2022-08-20T09:27:05.423Z,1283.13043
2022-08-20T09:32:06.929Z,1376.55814
2022-08-20T09:37:09.035Z,1484
2022-08-20T09:42:10.562Z,1376.55814
2022-08-20T09:47:12.000Z,1484
2022-08-20T09:52:13.684Z,1446.43902
2022-08-20T09:57:15.327Z,1376.55814
2022-08-20T10:02:17.188Z,1254.6383
2022-08-20T10:07:20.121Z,1376.55814
2022-08-20T10:12:21.867Z,1344
2022-08-20T10:17:23.710Z,1344
2022-08-20T10:22:25.690Z,1446.43902
2022-08-20T10:27:27.463Z,1376.55814
2022-08-20T10:32:29.222Z,1523.48718
2022-08-20T10:37:32.072Z,1484
2022-08-20T10:42:33.953Z,1484
2022-08-20T10:47:36.132Z,1655.11111
2022-08-20T10:52:38.204Z,1565.05263
2022-08-20T10:57:39.946Z,1410.66667
2022-08-20T11:02:41.715Z,1565.05263
2022-08-20T11:07:50.695Z,1484
2022-08-20T11:12:57.904Z,0
2022-08-20T11:17:59.593Z,1523.48718
2022-08-20T11:23:01.375Z,0
2022-08-20T11:28:03.030Z,1484
2022-08-20T11:33:04.648Z,0
2022-08-20T11:38:07.531Z,1410.66667
2022-08-20T11:43:16.265Z,1565.05263
2022-08-20T11:48:18.966Z,0
2022-08-20T11:53:21.570Z,0
2022-08-20T11:58:24.001Z,0
2022-08-20T12:03:25.763Z,0
2022-08-20T12:08:28.291Z,0
2022-08-20T12:13:47.201Z,0
2022-08-20T12:18:50.145Z,0
2022-08-20T12:23:51.741Z,0
2022-08-20T12:28:53.332Z,0
2022-08-20T12:33:55.136Z,0
2022-08-20T12:38:57.866Z,0
2022-08-20T12:43:59.505Z,0
2022-08-20T12:49:01.383Z,0
2022-08-20T12:54:03.234Z,0
2022-08-20T12:59:04.999Z,1446.43902
2022-08-20T13:04:06.749Z,1484
2022-08-20T13:09:09.402Z,1446.43902
2022-08-20T13:14:11.306Z,1484
2022-08-20T13:19:12.773Z,1312.88889
2022-08-20T13:24:14.680Z,1484
2022-08-20T13:29:17.384Z,1446.43902
2022-08-20T13:34:19.270Z,1410.66667
2022-08-20T13:39:21.357Z,1376.55814
2022-08-20T13:44:31.340Z,1283.13043
2022-08-20T13:49:35.066Z,1344
2022-08-20T13:54:36.816Z,1376.55814
2022-08-20T13:59:39.561Z,1312.88889
2022-08-20T14:04:41.674Z,1344
2022-08-20T14:09:43.603Z,1283.13043
2022-08-20T14:14:45.481Z,1254.6383
2022-08-20T14:19:47.336Z,1201.14286
2022-08-20T14:24:49.164Z,1254.6383
2022-08-20T14:29:51.238Z,1254.6383
2022-08-20T14:34:53.014Z,1227.33333
2022-08-20T14:39:55.079Z,1201.14286
2022-08-20T14:44:56.918Z,1254.6383
2022-08-20T14:49:58.380Z,1201.14286
2022-08-20T14:55:00.226Z,1176
2022-08-20T15:00:01.747Z,1176
2022-08-20T15:05:03.200Z,1151.84314
2022-08-20T15:10:09.392Z,1151.84314
2022-08-20T15:15:15.221Z,1151.84314
2022-08-20T15:20:20.153Z,1151.84314
2022-08-20T15:25:22.551Z,1128.61538
2022-08-20T15:30:24.569Z,1176
2022-08-20T15:35:26.324Z,1128.61538
2022-08-20T15:40:29.104Z,1064
2022-08-20T15:45:31.137Z,1084.74074
2022-08-20T15:50:32.876Z,1084.74074
2022-08-20T15:55:34.824Z,1084.74074
2022-08-20T16:00:36.685Z,1064
2022-08-20T16:05:38.545Z,1024.70175
2022-08-20T16:10:40.679Z,988.0678
2022-08-20T16:15:45.109Z,921.77778
2022-08-20T16:20:49.076Z,849.88235
2022-08-20T16:25:50.731Z,765.33333
2022-08-20T16:30:52.662Z,906.5
2022-08-20T16:35:54.357Z,937.54839
2022-08-20T16:40:56.182Z,970.66667
2022-08-20T16:45:57.647Z,891.69231
2022-08-20T16:50:59.229Z,644
2022-08-20T16:56:00.682Z,836.75362
2022-08-20T17:01:02.298Z,921.77778
2022-08-20T17:06:04.086Z,906.5
2022-08-20T17:11:05.856Z,906.5
2022-08-20T17:16:07.303Z,695.21951
2022-08-20T17:21:08.841Z,799.55556
2022-08-20T17:26:10.402Z,744
2022-08-20T17:31:11.953Z,723.74684
2022-08-20T17:36:13.590Z,787.83562
2022-08-20T17:41:17.490Z,877.33333
2022-08-20T17:46:19.555Z,877.33333
2022-08-20T17:51:21.317Z,877.33333
2022-08-20T17:56:23.118Z,799.55556
2022-08-20T18:01:24.914Z,849.88235
2022-08-20T18:06:30.472Z,824
2022-08-20T18:11:32.896Z,704.49383
2022-08-20T18:16:34.745Z,620.92308
2022-08-20T18:21:36.468Z,572.57143
2022-08-20T18:26:38.525Z,599.31915
2022-08-20T18:31:41.671Z,606.36559
2022-08-20T18:36:43.654Z,606.36559
2022-08-20T18:41:45.694Z,599.31915
2022-08-20T18:46:47.655Z,585.66667
2022-08-20T18:51:49.634Z,585.66667
2022-08-20T18:56:51.627Z,652.04598
2022-08-20T19:01:53.464Z,744
2022-08-20T19:06:57.631Z,776.43243
2022-08-20T19:11:59.763Z,776.43243
2022-08-20T19:17:01.307Z,799.55556
2022-08-20T19:22:03.074Z,824
2022-08-20T19:27:04.794Z,644
2022-08-20T19:32:06.580Z,560
2022-08-20T19:37:28.096Z,599.31915
2022-08-20T19:42:40.405Z,704.49383
2022-08-20T19:47:41.868Z,765.33333
2022-08-20T19:52:43.313Z,787.83562
2022-08-20T19:57:45.299Z,811.60563
2022-08-20T20:02:46.742Z,811.60563
2022-08-20T20:07:48.169Z,811.60563
2022-08-20T20:12:49.925Z,824
2022-08-20T20:17:51.496Z,765.33333
2022-08-20T20:22:53.146Z,660.27907
2022-08-20T20:27:54.723Z,695.21951
2022-08-20T20:32:56.440Z,723.74684
2022-08-20T20:37:58.014Z,723.74684
2022-08-20T20:42:59.780Z,723.74684
2022-08-20T20:48:01.899Z,714
2022-08-20T20:53:03.663Z,744
2022-08-20T20:58:05.539Z,776.43243
2022-08-20T21:03:07.050Z,776.43243
2022-08-20T21:08:08.790Z,799.55556
2022-08-20T21:13:10.968Z,799.55556
2022-08-20T21:18:12.481Z,744
2022-08-20T21:23:14.094Z,787.83562
2022-08-20T21:28:15.718Z,787.83562
2022-08-20T21:33:17.356Z,811.60563
2022-08-20T21:38:18.957Z,776.43243
2022-08-20T21:43:21.072Z,765.33333
2022-08-20T21:48:22.523Z,744
2022-08-20T21:53:24.042Z,754.52632
2022-08-20T21:58:25.490Z,744
2022-08-20T22:03:26.967Z,723.74684
2022-08-20T22:08:28.755Z,723.74684
2022-08-20T22:13:30.680Z,733.74359
2022-08-20T22:18:32.623Z,714
2022-08-20T22:23:34.413Z,714
2022-08-20T22:28:36.241Z,695.21951
2022-08-20T22:33:38.804Z,695.21951
2022-08-20T22:38:40.556Z,686.16867
2022-08-20T22:43:52.156Z,695.21951
2022-08-20T22:48:59.451Z,677.33333
2022-08-20T22:54:00.905Z,686.16867
2022-08-20T22:59:02.539Z,660.27907
2022-08-20T23:04:05.122Z,677.33333
2022-08-20T23:09:06.533Z,704.49383
2022-08-20T23:14:08.823Z,765.33333
2022-08-20T23:19:10.563Z,776.43243
2022-08-20T23:24:14.105Z,787.83562
2022-08-20T23:29:16.282Z,787.83562
2022-08-20T23:34:27.873Z,799.55556
2022-08-20T23:39:29.534Z,799.55556
2022-08-20T23:44:31.504Z,799.55556
2022-08-20T23:49:33.445Z,765.33333
2022-08-20T23:54:35.318Z,754.52632
2022-08-20T23:59:37.207Z,744
